KAWO/AWO METAR and TAF weather

Enter ICAO airport designator
Station Type Date Time Source
KAWO METAR 2024/06/15 23:56 UTC NOAA

KAWO 152356Z AUTO 17011KT 10SM CLR 13/08 A3012 RMK AO2 SLP205 60004 T01280078 10133 20100 52010


Station Type Date Time Source
KAWO Decoded METAR 2024/06/15 23:56 UTC NOAA

Arlington Municipal, WA, United States (KAWO) 48-10N 122-10W
Jun 15, 2024 - 07:56 PM EDT / 2024.06.15 2356 UTC
Wind: from the S (170 degrees) at 13 MPH (11 KT):0
Visibility: 10 mile(s):0
Sky conditions: clear
Temperature: 55.0 F (12.8 C)
Dew Point: 46.0 F (7.8 C)
Relative Humidity: 71%
Pressure (altimeter): 30.12 in. Hg (1019 hPa)
Pressure tendency: 0.03 inches (1.0 hPa) higher than three hours ago
ob: KAWO 152356Z AUTO 17011KT 10SM CLR 13/08 A3012 RMK AO2 SLP205 60004 T01280078 10133 20100 52010
cycle: 0

Station Type Date Time Source
KAWO TAF UTC NOAA

Error!

Example: see airport list